sensor_id;sensor_type;location;lat;lon;timestamp;P1;durP1;ratioP1;P2;durP2;ratioP2
17181;SDS011;8706;48.254;16.422;2023-12-20T00:00:22;8.27;;;7.60;;
17181;SDS011;8706;48.254;16.422;2023-12-20T00:02:49;8.33;;;7.67;;
17181;SDS011;8706;48.254;16.422;2023-12-20T00:05:16;8.47;;;7.77;;
17181;SDS011;8706;48.254;16.422;2023-12-20T00:07:43;8.37;;;7.67;;
17181;SDS011;8706;48.254;16.422;2023-12-20T00:10:09;8.07;;;7.43;;
17181;SDS011;8706;48.254;16.422;2023-12-20T00:12:38;7.93;;;7.33;;
17181;SDS011;8706;48.254;16.422;2023-12-20T00:15:07;8.07;;;7.47;;
17181;SDS011;8706;48.254;16.422;2023-12-20T00:17:34;8.90;;;8.20;;
17181;SDS011;8706;48.254;16.422;2023-12-20T00:20:01;8.77;;;8.07;;
17181;SDS011;8706;48.254;16.422;2023-12-20T00:22:28;8.30;;;7.60;;
17181;SDS011;8706;48.254;16.422;2023-12-20T00:24:55;8.00;;;7.30;;
17181;SDS011;8706;48.254;16.422;2023-12-20T00:27:22;8.27;;;7.57;;
17181;SDS011;8706;48.254;16.422;2023-12-20T00:29:49;7.97;;;7.37;;
17181;SDS011;8706;48.254;16.422;2023-12-20T00:32:17;8.10;;;7.50;;
17181;SDS011;8706;48.254;16.422;2023-12-20T00:34:44;8.40;;;7.70;;
17181;SDS011;8706;48.254;16.422;2023-12-20T00:37:11;8.47;;;7.77;;
17181;SDS011;8706;48.254;16.422;2023-12-20T00:39:38;8.00;;;7.30;;
17181;SDS011;8706;48.254;16.422;2023-12-20T00:42:05;8.17;;;7.53;;
17181;SDS011;8706;48.254;16.422;2023-12-20T00:44:32;8.60;;;8.00;;
17181;SDS011;8706;48.254;16.422;2023-12-20T00:46:58;8.03;;;7.43;;
17181;SDS011;8706;48.254;16.422;2023-12-20T00:49:27;8.17;;;7.50;;
17181;SDS011;8706;48.254;16.422;2023-12-20T00:51:54;8.03;;;7.43;;
17181;SDS011;8706;48.254;16.422;2023-12-20T00:54:21;8.50;;;7.80;;
17181;SDS011;8706;48.254;16.422;2023-12-20T00:56:48;7.90;;;7.30;;
17181;SDS011;8706;48.254;16.422;2023-12-20T00:59:16;8.40;;;7.70;;
17181;SDS011;8706;48.254;16.422;2023-12-20T01:01:43;8.33;;;7.63;;
17181;SDS011;8706;48.254;16.422;2023-12-20T01:04:10;8.23;;;7.57;;
17181;SDS011;8706;48.254;16.422;2023-12-20T01:06:38;7.83;;;7.23;;
17181;SDS011;8706;48.254;16.422;2023-12-20T01:09:05;8.57;;;7.97;;
17181;SDS011;8706;48.254;16.422;2023-12-20T01:11:32;8.50;;;7.80;;
17181;SDS011;8706;48.254;16.422;2023-12-20T01:13:59;8.63;;;7.93;;
17181;SDS011;8706;48.254;16.422;2023-12-20T01:16:26;8.47;;;7.77;;
17181;SDS011;8706;48.254;16.422;2023-12-20T01:18:53;8.53;;;7.83;;
17181;SDS011;8706;48.254;16.422;2023-12-20T01:21:19;8.40;;;7.70;;
17181;SDS011;8706;48.254;16.422;2023-12-20T01:23:48;7.70;;;7.10;;
17181;SDS011;8706;48.254;16.422;2023-12-20T01:26:14;7.93;;;7.33;;
17181;SDS011;8706;48.254;16.422;2023-12-20T01:28:41;8.50;;;7.80;;
17181;SDS011;8706;48.254;16.422;2023-12-20T01:31:08;8.30;;;7.60;;
17181;SDS011;8706;48.254;16.422;2023-12-20T01:33:35;7.70;;;7.07;;
17181;SDS011;8706;48.254;16.422;2023-12-20T01:36:02;8.30;;;7.60;;
17181;SDS011;8706;48.254;16.422;2023-12-20T01:38:29;8.53;;;7.83;;
17181;SDS011;8706;48.254;16.422;2023-12-20T01:40:58;8.53;;;7.83;;
17181;SDS011;8706;48.254;16.422;2023-12-20T01:43:25;8.00;;;7.40;;
17181;SDS011;8706;48.254;16.422;2023-12-20T01:45:52;8.30;;;7.60;;
17181;SDS011;8706;48.254;16.422;2023-12-20T01:48:21;8.67;;;7.87;;
17181;SDS011;8706;48.254;16.422;2023-12-20T01:50:48;8.10;;;7.50;;
17181;SDS011;8706;48.254;16.422;2023-12-20T01:53:15;7.90;;;7.30;;
17181;SDS011;8706;48.254;16.422;2023-12-20T01:55:43;8.37;;;7.77;;
17181;SDS011;8706;48.254;16.422;2023-12-20T01:58:12;8.27;;;7.57;;
17181;SDS011;8706;48.254;16.422;2023-12-20T02:00:40;7.67;;;7.07;;
17181;SDS011;8706;48.254;16.422;2023-12-20T02:03:07;8.50;;;7.80;;
17181;SDS011;8706;48.254;16.422;2023-12-20T02:05:35;8.17;;;7.47;;
17181;SDS011;8706;48.254;16.422;2023-12-20T02:08:01;8.50;;;7.80;;
17181;SDS011;8706;48.254;16.422;2023-12-20T02:10:28;7.90;;;7.30;;
17181;SDS011;8706;48.254;16.422;2023-12-20T02:12:56;8.07;;;7.37;;
17181;SDS011;8706;48.254;16.422;2023-12-20T02:15:24;8.10;;;7.50;;
17181;SDS011;8706;48.254;16.422;2023-12-20T02:17:51;7.83;;;7.23;;
17181;SDS011;8706;48.254;16.422;2023-12-20T02:20:18;8.77;;;8.07;;
17181;SDS011;8706;48.254;16.422;2023-12-20T02:22:46;7.70;;;7.10;;
17181;SDS011;8706;48.254;16.422;2023-12-20T02:25:13;8.63;;;7.93;;
17181;SDS011;8706;48.254;16.422;2023-12-20T02:27:40;7.93;;;7.33;;
17181;SDS011;8706;48.254;16.422;2023-12-20T02:30:07;8.30;;;7.63;;
17181;SDS011;8706;48.254;16.422;2023-12-20T02:32:34;8.63;;;7.93;;
17181;SDS011;8706;48.254;16.422;2023-12-20T02:35:01;7.60;;;7.00;;
17181;SDS011;8706;48.254;16.422;2023-12-20T02:37:28;7.33;;;6.73;;
17181;SDS011;8706;48.254;16.422;2023-12-20T02:39:56;8.00;;;7.40;;
17181;SDS011;8706;48.254;16.422;2023-12-20T02:42:23;8.30;;;7.60;;
17181;SDS011;8706;48.254;16.422;2023-12-20T02:44:50;8.13;;;7.43;;
17181;SDS011;8706;48.254;16.422;2023-12-20T02:47:16;7.50;;;6.93;;
17181;SDS011;8706;48.254;16.422;2023-12-20T02:49:43;8.10;;;7.50;;
17181;SDS011;8706;48.254;16.422;2023-12-20T02:52:10;8.43;;;7.73;;
17181;SDS011;8706;48.254;16.422;2023-12-20T02:54:37;7.93;;;7.33;;
17181;SDS011;8706;48.254;16.422;2023-12-20T02:57:06;8.13;;;7.53;;
17181;SDS011;8706;48.254;16.422;2023-12-20T02:59:32;7.80;;;7.20;;
17181;SDS011;8706;48.254;16.422;2023-12-20T03:01:59;8.30;;;7.70;;
17181;SDS011;8706;48.254;16.422;2023-12-20T03:04:26;8.07;;;7.47;;
17181;SDS011;8706;48.254;16.422;2023-12-20T03:06:53;7.53;;;6.93;;
17181;SDS011;8706;48.254;16.422;2023-12-20T03:09:20;8.17;;;7.47;;
17181;SDS011;8706;48.254;16.422;2023-12-20T03:11:47;7.80;;;7.20;;
17181;SDS011;8706;48.254;16.422;2023-12-20T03:14:15;7.63;;;7.03;;
17181;SDS011;8706;48.254;16.422;2023-12-20T03:16:42;8.10;;;7.50;;
17181;SDS011;8706;48.254;16.422;2023-12-20T03:19:13;8.17;;;7.47;;
17181;SDS011;8706;48.254;16.422;2023-12-20T03:21:41;8.03;;;7.40;;
17181;SDS011;8706;48.254;16.422;2023-12-20T03:24:07;7.77;;;7.17;;
17181;SDS011;8706;48.254;16.422;2023-12-20T03:26:34;7.50;;;6.90;;
17181;SDS011;8706;48.254;16.422;2023-12-20T03:29:01;7.77;;;7.10;;
17181;SDS011;8706;48.254;16.422;2023-12-20T03:31:29;7.73;;;7.13;;
17181;SDS011;8706;48.254;16.422;2023-12-20T03:33:56;8.77;;;8.07;;
17181;SDS011;8706;48.254;16.422;2023-12-20T03:36:23;7.60;;;7.10;;
17181;SDS011;8706;48.254;16.422;2023-12-20T03:38:50;8.23;;;7.63;;
17181;SDS011;8706;48.254;16.422;2023-12-20T03:41:17;7.80;;;7.20;;
17181;SDS011;8706;48.254;16.422;2023-12-20T03:43:43;8.07;;;7.37;;
17181;SDS011;8706;48.254;16.422;2023-12-20T03:46:10;8.00;;;7.40;;
17181;SDS011;8706;48.254;16.422;2023-12-20T03:48:38;8.03;;;7.43;;
17181;SDS011;8706;48.254;16.422;2023-12-20T03:51:05;7.43;;;6.87;;
17181;SDS011;8706;48.254;16.422;2023-12-20T03:53:32;7.40;;;6.80;;
17181;SDS011;8706;48.254;16.422;2023-12-20T03:55:59;8.20;;;7.50;;
17181;SDS011;8706;48.254;16.422;2023-12-20T03:58:26;7.40;;;6.90;;
17181;SDS011;8706;48.254;16.422;2023-12-20T04:00:53;8.27;;;7.57;;
17181;SDS011;8706;48.254;16.422;2023-12-20T04:03:19;7.50;;;6.90;;
17181;SDS011;8706;48.254;16.422;2023-12-20T04:05:48;8.07;;;7.47;;
17181;SDS011;8706;48.254;16.422;2023-12-20T04:08:14;8.27;;;7.57;;
17181;SDS011;8706;48.254;16.422;2023-12-20T04:10:41;7.87;;;7.27;;
17181;SDS011;8706;48.254;16.422;2023-12-20T04:13:08;8.03;;;7.43;;
17181;SDS011;8706;48.254;16.422;2023-12-20T04:15:35;8.00;;;7.40;;
17181;SDS011;8706;48.254;16.422;2023-12-20T04:18:02;8.00;;;7.40;;
17181;SDS011;8706;48.254;16.422;2023-12-20T04:20:29;8.00;;;7.40;;
17181;SDS011;8706;48.254;16.422;2023-12-20T04:22:57;7.80;;;7.20;;
17181;SDS011;8706;48.254;16.422;2023-12-20T04:25:24;7.97;;;7.37;;
17181;SDS011;8706;48.254;16.422;2023-12-20T04:27:51;8.27;;;7.60;;
17181;SDS011;8706;48.254;16.422;2023-12-20T04:30:18;8.73;;;8.07;;
17181;SDS011;8706;48.254;16.422;2023-12-20T04:32:45;8.37;;;7.67;;
17181;SDS011;8706;48.254;16.422;2023-12-20T04:35:12;8.03;;;7.33;;
17181;SDS011;8706;48.254;16.422;2023-12-20T04:37:39;8.23;;;7.53;;
17181;SDS011;8706;48.254;16.422;2023-12-20T04:40:07;7.97;;;7.37;;
17181;SDS011;8706;48.254;16.422;2023-12-20T04:42:35;7.57;;;6.97;;
17181;SDS011;8706;48.254;16.422;2023-12-20T04:45:01;7.30;;;6.70;;
17181;SDS011;8706;48.254;16.422;2023-12-20T04:47:28;7.67;;;7.07;;
17181;SDS011;8706;48.254;16.422;2023-12-20T04:49:55;7.27;;;6.77;;
17181;SDS011;8706;48.254;16.422;2023-12-20T04:52:22;7.53;;;6.93;;
17181;SDS011;8706;48.254;16.422;2023-12-20T04:54:49;7.70;;;7.10;;
17181;SDS011;8706;48.254;16.422;2023-12-20T04:57:17;7.87;;;7.27;;
17181;SDS011;8706;48.254;16.422;2023-12-20T04:59:44;7.70;;;7.10;;
17181;SDS011;8706;48.254;16.422;2023-12-20T05:02:11;7.37;;;6.77;;
17181;SDS011;8706;48.254;16.422;2023-12-20T05:04:38;7.90;;;7.30;;
17181;SDS011;8706;48.254;16.422;2023-12-20T05:07:05;7.87;;;7.27;;
17181;SDS011;8706;48.254;16.422;2023-12-20T05:09:31;8.17;;;7.57;;
17181;SDS011;8706;48.254;16.422;2023-12-20T05:11:58;7.70;;;7.10;;
17181;SDS011;8706;48.254;16.422;2023-12-20T05:14:26;7.93;;;7.33;;
17181;SDS011;8706;48.254;16.422;2023-12-20T05:16:53;7.93;;;7.27;;
17181;SDS011;8706;48.254;16.422;2023-12-20T05:19:21;7.17;;;6.67;;
17181;SDS011;8706;48.254;16.422;2023-12-20T05:21:49;7.10;;;6.60;;
17181;SDS011;8706;48.254;16.422;2023-12-20T05:24:16;7.80;;;7.20;;
17181;SDS011;8706;48.254;16.422;2023-12-20T05:26:43;7.53;;;6.93;;
17181;SDS011;8706;48.254;16.422;2023-12-20T05:29:09;8.40;;;7.70;;
17181;SDS011;8706;48.254;16.422;2023-12-20T05:31:38;7.10;;;6.60;;
17181;SDS011;8706;48.254;16.422;2023-12-20T05:34:04;7.60;;;7.00;;
17181;SDS011;8706;48.254;16.422;2023-12-20T05:36:31;7.30;;;6.77;;
17181;SDS011;8706;48.254;16.422;2023-12-20T05:38:58;8.00;;;7.30;;
17181;SDS011;8706;48.254;16.422;2023-12-20T05:41:25;6.93;;;6.43;;
17181;SDS011;8706;48.254;16.422;2023-12-20T05:43:52;8.70;;;8.00;;
17181;SDS011;8706;48.254;16.422;2023-12-20T05:46:19;7.53;;;6.93;;
17181;SDS011;8706;48.254;16.422;2023-12-20T05:48:47;6.90;;;6.40;;
17181;SDS011;8706;48.254;16.422;2023-12-20T05:51:14;7.60;;;7.00;;
17181;SDS011;8706;48.254;16.422;2023-12-20T05:53:41;8.20;;;7.50;;
17181;SDS011;8706;48.254;16.422;2023-12-20T05:56:09;7.27;;;6.77;;
17181;SDS011;8706;48.254;16.422;2023-12-20T05:58:36;7.60;;;7.03;;
17181;SDS011;8706;48.254;16.422;2023-12-20T06:01:04;7.00;;;6.50;;
17181;SDS011;8706;48.254;16.422;2023-12-20T06:03:33;7.50;;;6.97;;
17181;SDS011;8706;48.254;16.422;2023-12-20T06:06:05;7.17;;;6.67;;
17181;SDS011;8706;48.254;16.422;2023-12-20T06:08:32;8.07;;;7.47;;
17181;SDS011;8706;48.254;16.422;2023-12-20T06:10:59;7.63;;;7.03;;
17181;SDS011;8706;48.254;16.422;2023-12-20T06:13:26;7.87;;;7.27;;
17181;SDS011;8706;48.254;16.422;2023-12-20T06:15:53;8.13;;;7.43;;
17181;SDS011;8706;48.254;16.422;2023-12-20T06:18:20;8.23;;;7.63;;
17181;SDS011;8706;48.254;16.422;2023-12-20T06:20:47;7.20;;;6.70;;
17181;SDS011;8706;48.254;16.422;2023-12-20T06:23:16;8.83;;;8.13;;
17181;SDS011;8706;48.254;16.422;2023-12-20T06:25:43;8.23;;;7.63;;
17181;SDS011;8706;48.254;16.422;2023-12-20T06:28:10;7.83;;;7.23;;
17181;SDS011;8706;48.254;16.422;2023-12-20T06:30:39;7.90;;;7.30;;
17181;SDS011;8706;48.254;16.422;2023-12-20T06:33:06;7.80;;;7.20;;
17181;SDS011;8706;48.254;16.422;2023-12-20T06:35:35;8.67;;;8.07;;
17181;SDS011;8706;48.254;16.422;2023-12-20T06:38:02;7.90;;;7.33;;
17181;SDS011;8706;48.254;16.422;2023-12-20T06:40:30;8.53;;;7.93;;
17181;SDS011;8706;48.254;16.422;2023-12-20T06:42:57;8.63;;;7.97;;
17181;SDS011;8706;48.254;16.422;2023-12-20T06:45:24;7.47;;;6.97;;
17181;SDS011;8706;48.254;16.422;2023-12-20T06:47:51;7.23;;;6.63;;
17181;SDS011;8706;48.254;16.422;2023-12-20T06:50:19;7.23;;;6.63;;
17181;SDS011;8706;48.254;16.422;2023-12-20T06:52:46;8.00;;;7.50;;
17181;SDS011;8706;48.254;16.422;2023-12-20T06:55:13;7.70;;;7.10;;
17181;SDS011;8706;48.254;16.422;2023-12-20T06:57:41;7.53;;;7.03;;
17181;SDS011;8706;48.254;16.422;2023-12-20T07:00:10;7.67;;;7.07;;
17181;SDS011;8706;48.254;16.422;2023-12-20T07:02:38;6.70;;;6.20;;
17181;SDS011;8706;48.254;16.422;2023-12-20T07:05:05;7.30;;;6.60;;
17181;SDS011;8706;48.254;16.422;2023-12-20T07:07:32;7.13;;;6.57;;
17181;SDS011;8706;48.254;16.422;2023-12-20T07:09:59;8.90;;;8.30;;
17181;SDS011;8706;48.254;16.422;2023-12-20T07:12:25;6.63;;;6.13;;
17181;SDS011;8706;48.254;16.422;2023-12-20T07:14:54;6.77;;;6.27;;
17181;SDS011;8706;48.254;16.422;2023-12-20T07:17:22;6.87;;;6.37;;
17181;SDS011;8706;48.254;16.422;2023-12-20T07:19:48;7.10;;;6.50;;
17181;SDS011;8706;48.254;16.422;2023-12-20T07:22:15;8.00;;;7.40;;
17181;SDS011;8706;48.254;16.422;2023-12-20T07:24:42;7.10;;;6.50;;
17181;SDS011;8706;48.254;16.422;2023-12-20T07:27:09;7.40;;;6.90;;
17181;SDS011;8706;48.254;16.422;2023-12-20T07:29:36;7.67;;;7.07;;
17181;SDS011;8706;48.254;16.422;2023-12-20T07:32:05;7.70;;;7.03;;
17181;SDS011;8706;48.254;16.422;2023-12-20T07:34:33;6.80;;;6.30;;
17181;SDS011;8706;48.254;16.422;2023-12-20T07:37:00;6.93;;;6.43;;
17181;SDS011;8706;48.254;16.422;2023-12-20T07:39:27;7.53;;;7.03;;
17181;SDS011;8706;48.254;16.422;2023-12-20T07:41:54;6.83;;;6.33;;
17181;SDS011;8706;48.254;16.422;2023-12-20T07:44:21;7.47;;;6.90;;
17181;SDS011;8706;48.254;16.422;2023-12-20T07:46:48;7.13;;;6.53;;
17181;SDS011;8706;48.254;16.422;2023-12-20T07:49:16;7.77;;;7.17;;
17181;SDS011;8706;48.254;16.422;2023-12-20T07:51:43;6.63;;;6.13;;
17181;SDS011;8706;48.254;16.422;2023-12-20T07:54:10;8.63;;;6.33;;
17181;SDS011;8706;48.254;16.422;2023-12-20T07:56:37;6.97;;;6.47;;
17181;SDS011;8706;48.254;16.422;2023-12-20T07:59:05;6.57;;;6.07;;
17181;SDS011;8706;48.254;16.422;2023-12-20T08:01:32;6.70;;;6.20;;
17181;SDS011;8706;48.254;16.422;2023-12-20T08:03:59;6.37;;;5.90;;
17181;SDS011;8706;48.254;16.422;2023-12-20T08:06:27;6.67;;;6.17;;
17181;SDS011;8706;48.254;16.422;2023-12-20T08:08:54;6.67;;;6.23;;
17181;SDS011;8706;48.254;16.422;2023-12-20T08:11:21;6.70;;;6.20;;
17181;SDS011;8706;48.254;16.422;2023-12-20T08:13:47;7.03;;;6.47;;
17181;SDS011;8706;48.254;16.422;2023-12-20T08:16:14;6.90;;;6.40;;
17181;SDS011;8706;48.254;16.422;2023-12-20T08:18:42;6.80;;;6.20;;
17181;SDS011;8706;48.254;16.422;2023-12-20T08:21:09;6.33;;;5.83;;
17181;SDS011;8706;48.254;16.422;2023-12-20T08:23:38;7.20;;;6.60;;
17181;SDS011;8706;48.254;16.422;2023-12-20T08:26:05;6.40;;;6.00;;
17181;SDS011;8706;48.254;16.422;2023-12-20T08:28:31;6.67;;;6.17;;
17181;SDS011;8706;48.254;16.422;2023-12-20T08:30:57;6.37;;;5.87;;
17181;SDS011;8706;48.254;16.422;2023-12-20T08:33:24;6.30;;;5.80;;
17181;SDS011;8706;48.254;16.422;2023-12-20T08:35:51;6.80;;;6.27;;
17181;SDS011;8706;48.254;16.422;2023-12-20T08:38:18;6.90;;;6.40;;
17181;SDS011;8706;48.254;16.422;2023-12-20T08:40:46;6.83;;;6.23;;
17181;SDS011;8706;48.254;16.422;2023-12-20T08:43:14;7.37;;;6.77;;
17181;SDS011;8706;48.254;16.422;2023-12-20T08:45:41;7.13;;;6.53;;
17181;SDS011;8706;48.254;16.422;2023-12-20T08:48:08;6.60;;;6.10;;
17181;SDS011;8706;48.254;16.422;2023-12-20T08:50:34;6.20;;;5.70;;
17181;SDS011;8706;48.254;16.422;2023-12-20T08:53:02;6.37;;;5.87;;
17181;SDS011;8706;48.254;16.422;2023-12-20T08:55:29;6.87;;;6.33;;
17181;SDS011;8706;48.254;16.422;2023-12-20T08:57:57;6.77;;;6.20;;
17181;SDS011;8706;48.254;16.422;2023-12-20T09:00:24;6.30;;;5.80;;
17181;SDS011;8706;48.254;16.422;2023-12-20T09:02:52;5.60;;;5.20;;
17181;SDS011;8706;48.254;16.422;2023-12-20T09:05:20;6.20;;;5.80;;
17181;SDS011;8706;48.254;16.422;2023-12-20T09:07:47;6.57;;;6.03;;
17181;SDS011;8706;48.254;16.422;2023-12-20T09:10:14;6.17;;;5.67;;
17181;SDS011;8706;48.254;16.422;2023-12-20T09:12:41;6.37;;;5.87;;
17181;SDS011;8706;48.254;16.422;2023-12-20T09:15:09;5.70;;;5.30;;
17181;SDS011;8706;48.254;16.422;2023-12-20T09:17:36;5.90;;;5.40;;
17181;SDS011;8706;48.254;16.422;2023-12-20T09:20:03;5.77;;;5.37;;
17181;SDS011;8706;48.254;16.422;2023-12-20T09:22:32;5.77;;;5.30;;
17181;SDS011;8706;48.254;16.422;2023-12-20T09:24:58;5.27;;;4.87;;
17181;SDS011;8706;48.254;16.422;2023-12-20T09:27:26;5.37;;;4.97;;
17181;SDS011;8706;48.254;16.422;2023-12-20T09:29:53;5.90;;;5.43;;
17181;SDS011;8706;48.254;16.422;2023-12-20T09:32:21;6.23;;;5.73;;
17181;SDS011;8706;48.254;16.422;2023-12-20T09:34:48;5.67;;;5.27;;
17181;SDS011;8706;48.254;16.422;2023-12-20T09:37:15;5.20;;;4.80;;
17181;SDS011;8706;48.254;16.422;2023-12-20T09:39:42;6.83;;;6.33;;
17181;SDS011;8706;48.254;16.422;2023-12-20T09:42:09;5.17;;;4.77;;
17181;SDS011;8706;48.254;16.422;2023-12-20T09:44:39;5.60;;;5.20;;
17181;SDS011;8706;48.254;16.422;2023-12-20T09:47:07;5.23;;;4.83;;
17181;SDS011;8706;48.254;16.422;2023-12-20T09:49:36;5.77;;;5.37;;
17181;SDS011;8706;48.254;16.422;2023-12-20T09:52:04;5.73;;;5.33;;
17181;SDS011;8706;48.254;16.422;2023-12-20T09:54:33;4.83;;;4.43;;
17181;SDS011;8706;48.254;16.422;2023-12-20T09:57:00;5.50;;;5.10;;
17181;SDS011;8706;48.254;16.422;2023-12-20T09:59:27;5.37;;;4.97;;
17181;SDS011;8706;48.254;16.422;2023-12-20T10:01:54;5.17;;;4.77;;
17181;SDS011;8706;48.254;16.422;2023-12-20T10:04:22;5.43;;;5.03;;
17181;SDS011;8706;48.254;16.422;2023-12-20T10:06:52;4.67;;;4.37;;
17181;SDS011;8706;48.254;16.422;2023-12-20T10:09:19;4.80;;;4.50;;
17181;SDS011;8706;48.254;16.422;2023-12-20T10:11:45;5.37;;;4.97;;
17181;SDS011;8706;48.254;16.422;2023-12-20T10:14:12;5.17;;;4.77;;
17181;SDS011;8706;48.254;16.422;2023-12-20T10:16:40;5.30;;;4.90;;
17181;SDS011;8706;48.254;16.422;2023-12-20T10:19:07;4.50;;;4.20;;
17181;SDS011;8706;48.254;16.422;2023-12-20T10:21:34;4.30;;;4.00;;
17181;SDS011;8706;48.254;16.422;2023-12-20T10:24:02;5.03;;;4.63;;
17181;SDS011;8706;48.254;16.422;2023-12-20T10:26:29;5.30;;;4.90;;
17181;SDS011;8706;48.254;16.422;2023-12-20T10:28:59;4.43;;;4.13;;
17181;SDS011;8706;48.254;16.422;2023-12-20T10:31:27;4.83;;;4.47;;
17181;SDS011;8706;48.254;16.422;2023-12-20T10:33:55;4.73;;;4.33;;
17181;SDS011;8706;48.254;16.422;2023-12-20T10:36:24;4.90;;;4.60;;
17181;SDS011;8706;48.254;16.422;2023-12-20T10:38:53;4.73;;;4.43;;
17181;SDS011;8706;48.254;16.422;2023-12-20T10:41:23;5.10;;;4.70;;
17181;SDS011;8706;48.254;16.422;2023-12-20T10:43:52;5.37;;;5.00;;
17181;SDS011;8706;48.254;16.422;2023-12-20T10:46:22;4.93;;;4.63;;
17181;SDS011;8706;48.254;16.422;2023-12-20T10:48:51;5.00;;;4.60;;
17181;SDS011;8706;48.254;16.422;2023-12-20T10:51:19;4.70;;;4.40;;
17181;SDS011;8706;48.254;16.422;2023-12-20T10:53:47;5.17;;;4.87;;
17181;SDS011;8706;48.254;16.422;2023-12-20T10:56:15;4.67;;;4.37;;
17181;SDS011;8706;48.254;16.422;2023-12-20T10:58:46;4.27;;;3.97;;
17181;SDS011;8706;48.254;16.422;2023-12-20T11:01:14;4.67;;;4.37;;
17181;SDS011;8706;48.254;16.422;2023-12-20T11:03:43;3.90;;;3.60;;
17181;SDS011;8706;48.254;16.422;2023-12-20T11:06:16;4.47;;;4.17;;
17181;SDS011;8706;48.254;16.422;2023-12-20T11:08:50;4.40;;;4.10;;
17181;SDS011;8706;48.254;16.422;2023-12-20T11:11:23;4.40;;;4.10;;
17181;SDS011;8706;48.254;16.422;2023-12-20T11:13:59;4.17;;;3.87;;
17181;SDS011;8706;48.254;16.422;2023-12-20T11:16:30;4.70;;;4.40;;
17181;SDS011;8706;48.254;16.422;2023-12-20T11:18:57;4.77;;;4.47;;
17181;SDS011;8706;48.254;16.422;2023-12-20T11:21:30;5.03;;;4.63;;
17181;SDS011;8706;48.254;16.422;2023-12-20T11:23:57;4.57;;;4.20;;
17181;SDS011;8706;48.254;16.422;2023-12-20T11:26:26;4.40;;;4.10;;
17181;SDS011;8706;48.254;16.422;2023-12-20T11:28:54;4.87;;;4.57;;
17181;SDS011;8706;48.254;16.422;2023-12-20T11:31:42;4.13;;;3.83;;
17181;SDS011;8706;48.254;16.422;2023-12-20T11:34:12;4.50;;;4.13;;
17181;SDS011;8706;48.254;16.422;2023-12-20T11:36:40;4.70;;;4.40;;
17181;SDS011;8706;48.254;16.422;2023-12-20T11:39:07;3.60;;;3.40;;
17181;SDS011;8706;48.254;16.422;2023-12-20T11:41:35;4.40;;;4.10;;
17181;SDS011;8706;48.254;16.422;2023-12-20T11:44:04;3.90;;;3.60;;
17181;SDS011;8706;48.254;16.422;2023-12-20T11:46:31;4.53;;;4.23;;
17181;SDS011;8706;48.254;16.422;2023-12-20T11:48:59;4.20;;;3.90;;
17181;SDS011;8706;48.254;16.422;2023-12-20T11:51:27;3.83;;;3.60;;
17181;SDS011;8706;48.254;16.422;2023-12-20T11:53:54;3.70;;;3.40;;
17181;SDS011;8706;48.254;16.422;2023-12-20T11:56:21;4.37;;;4.07;;
17181;SDS011;8706;48.254;16.422;2023-12-20T11:58:48;3.50;;;3.23;;
17181;SDS011;8706;48.254;16.422;2023-12-20T12:01:15;4.27;;;3.97;;
17181;SDS011;8706;48.254;16.422;2023-12-20T12:03:42;4.23;;;3.93;;
17181;SDS011;8706;48.254;16.422;2023-12-20T12:06:10;4.37;;;4.07;;
17181;SDS011;8706;48.254;16.422;2023-12-20T12:08:38;3.50;;;3.30;;
17181;SDS011;8706;48.254;16.422;2023-12-20T12:11:05;4.30;;;4.00;;
17181;SDS011;8706;48.254;16.422;2023-12-20T12:13:32;4.03;;;3.73;;
17181;SDS011;8706;48.254;16.422;2023-12-20T12:15:58;4.93;;;4.63;;
17181;SDS011;8706;48.254;16.422;2023-12-20T12:18:25;3.60;;;3.30;;
17181;SDS011;8706;48.254;16.422;2023-12-20T12:20:59;3.90;;;3.60;;
17181;SDS011;8706;48.254;16.422;2023-12-20T12:23:29;4.97;;;4.67;;
17181;SDS011;8706;48.254;16.422;2023-12-20T12:25:56;3.83;;;3.53;;
17181;SDS011;8706;48.254;16.422;2023-12-20T12:28:25;3.67;;;3.43;;
17181;SDS011;8706;48.254;16.422;2023-12-20T12:30:56;4.10;;;3.80;;
17181;SDS011;8706;48.254;16.422;2023-12-20T12:33:24;4.10;;;3.80;;
17181;SDS011;8706;48.254;16.422;2023-12-20T12:35:51;3.60;;;3.40;;
17181;SDS011;8706;48.254;16.422;2023-12-20T12:38:19;3.93;;;3.63;;
17181;SDS011;8706;48.254;16.422;2023-12-20T12:40:49;3.13;;;2.93;;
17181;SDS011;8706;48.254;16.422;2023-12-20T12:43:18;4.53;;;4.23;;
17181;SDS011;8706;48.254;16.422;2023-12-20T12:45:45;3.90;;;3.60;;
17181;SDS011;8706;48.254;16.422;2023-12-20T12:48:12;3.47;;;3.27;;
17181;SDS011;8706;48.254;16.422;2023-12-20T12:50:39;3.80;;;3.50;;
17181;SDS011;8706;48.254;16.422;2023-12-20T12:53:06;3.00;;;2.80;;
17181;SDS011;8706;48.254;16.422;2023-12-20T12:55:34;3.27;;;3.07;;
17181;SDS011;8706;48.254;16.422;2023-12-20T12:58:02;2.97;;;2.77;;
17181;SDS011;8706;48.254;16.422;2023-12-20T13:00:29;3.00;;;2.80;;
17181;SDS011;8706;48.254;16.422;2023-12-20T13:02:56;3.00;;;2.80;;
17181;SDS011;8706;48.254;16.422;2023-12-20T13:05:23;3.60;;;3.40;;
17181;SDS011;8706;48.254;16.422;2023-12-20T13:07:50;3.30;;;3.10;;
17181;SDS011;8706;48.254;16.422;2023-12-20T13:10:17;3.13;;;2.93;;
17181;SDS011;8706;48.254;16.422;2023-12-20T13:12:44;3.20;;;2.90;;
17181;SDS011;8706;48.254;16.422;2023-12-20T13:15:12;3.50;;;3.30;;
17181;SDS011;8706;48.254;16.422;2023-12-20T13:17:39;3.53;;;3.33;;
17181;SDS011;8706;48.254;16.422;2023-12-20T13:20:06;3.43;;;3.23;;
17181;SDS011;8706;48.254;16.422;2023-12-20T13:22:34;3.37;;;3.17;;
17181;SDS011;8706;48.254;16.422;2023-12-20T13:25:01;2.97;;;2.77;;
17181;SDS011;8706;48.254;16.422;2023-12-20T13:27:28;4.83;;;4.53;;
17181;SDS011;8706;48.254;16.422;2023-12-20T13:29:55;3.47;;;3.27;;
17181;SDS011;8706;48.254;16.422;2023-12-20T13:32:23;3.63;;;3.43;;
17181;SDS011;8706;48.254;16.422;2023-12-20T13:34:50;3.10;;;2.90;;
17181;SDS011;8706;48.254;16.422;2023-12-20T13:37:17;2.87;;;2.67;;
17181;SDS011;8706;48.254;16.422;2023-12-20T13:39:44;3.17;;;2.97;;
17181;SDS011;8706;48.254;16.422;2023-12-20T13:42:11;2.90;;;2.70;;
17181;SDS011;8706;48.254;16.422;2023-12-20T13:44:37;3.40;;;3.20;;
17181;SDS011;8706;48.254;16.422;2023-12-20T13:47:04;3.30;;;3.10;;
17181;SDS011;8706;48.254;16.422;2023-12-20T13:49:33;2.60;;;2.50;;
17181;SDS011;8706;48.254;16.422;2023-12-20T13:52:00;3.93;;;3.73;;
17181;SDS011;8706;48.254;16.422;2023-12-20T13:54:29;2.97;;;2.77;;
17181;SDS011;8706;48.254;16.422;2023-12-20T13:56:56;3.43;;;3.23;;
17181;SDS011;8706;48.254;16.422;2023-12-20T13:59:23;3.10;;;2.90;;
17181;SDS011;8706;48.254;16.422;2023-12-20T14:01:50;2.80;;;2.60;;
17181;SDS011;8706;48.254;16.422;2023-12-20T14:04:16;3.13;;;3.00;;
17181;SDS011;8706;48.254;16.422;2023-12-20T14:06:45;3.37;;;3.17;;
17181;SDS011;8706;48.254;16.422;2023-12-20T14:09:11;2.80;;;2.60;;
17181;SDS011;8706;48.254;16.422;2023-12-20T14:11:40;2.67;;;2.57;;
17181;SDS011;8706;48.254;16.422;2023-12-20T14:14:07;2.80;;;2.60;;
17181;SDS011;8706;48.254;16.422;2023-12-20T14:16:34;3.07;;;2.87;;
17181;SDS011;8706;48.254;16.422;2023-12-20T14:19:03;2.83;;;2.67;;
17181;SDS011;8706;48.254;16.422;2023-12-20T14:21:32;2.90;;;2.70;;
17181;SDS011;8706;48.254;16.422;2023-12-20T14:24:00;2.70;;;2.60;;
17181;SDS011;8706;48.254;16.422;2023-12-20T14:26:29;2.83;;;2.63;;
17181;SDS011;8706;48.254;16.422;2023-12-20T14:28:56;3.03;;;2.83;;
17181;SDS011;8706;48.254;16.422;2023-12-20T14:31:23;2.97;;;2.77;;
17181;SDS011;8706;48.254;16.422;2023-12-20T14:33:50;3.33;;;3.13;;
17181;SDS011;8706;48.254;16.422;2023-12-20T14:36:18;3.10;;;2.50;;
17181;SDS011;8706;48.254;16.422;2023-12-20T14:38:45;3.43;;;3.23;;
17181;SDS011;8706;48.254;16.422;2023-12-20T14:41:16;4.83;;;4.53;;
17181;SDS011;8706;48.254;16.422;2023-12-20T14:43:44;3.10;;;2.90;;
17181;SDS011;8706;48.254;16.422;2023-12-20T14:46:11;2.80;;;2.60;;
17181;SDS011;8706;48.254;16.422;2023-12-20T14:48:38;2.60;;;2.50;;